Time;durP1;ratioP1;P1;durP2;ratioP2;P2;SDS_P1;SDS_P2;PMS_P1;PMS_P2;Temp;Humidity;BMP_temperature;BMP_pressure;BME280_temperature;BME280_humidity;BME280_pressure;Samples;Min_cycle;Max_cycle;Signal;HPM_P1;HPM_P2
2021/07/23 00:01:56;;;;;;;9.07;6.40;;;;;;;16.34;59.56;97557.78;126901;1092;62754;-65
2021/07/23 00:04:23;;;;;;;9.60;6.43;;;;;;;16.33;59.84;97556.21;126885;1092;62627;-65
2021/07/23 00:06:50;;;;;;;9.20;6.23;;;;;;;16.31;59.58;97551.10;126925;1091;62598;-65
2021/07/23 00:09:17;;;;;;;10.43;6.50;;;;;;;16.30;59.48;97551.58;126868;1092;62671;-65
2021/07/23 00:11:44;;;;;;;11.10;6.53;;;;;;;16.29;60.20;97545.22;126872;1092;62722;-64
2021/07/23 00:14:11;;;;;;;8.53;6.07;;;;;;;16.29;60.04;97552.83;126897;1092;62710;-66
2021/07/23 00:16:38;;;;;;;9.07;6.30;;;;;;;16.27;59.84;97546.95;126891;1092;62656;-68
2021/07/23 00:19:05;;;;;;;12.67;6.30;;;;;;;16.27;60.41;97558.13;126958;1092;62629;-64
2021/07/23 00:21:32;;;;;;;10.53;6.50;;;;;;;16.25;60.55;97555.03;126896;1092;62986;-65
2021/07/23 00:23:59;;;;;;;12.13;7.20;;;;;;;16.24;60.57;97550.70;126837;1092;62605;-65
2021/07/23 00:26:26;;;;;;;9.10;6.70;;;;;;;16.23;60.17;97551.95;126917;1092;62687;-64
2021/07/23 00:28:53;;;;;;;10.33;6.53;;;;;;;16.23;60.34;97546.36;126839;1092;62626;-64
2021/07/23 00:31:21;;;;;;;8.90;6.37;;;;;;;16.22;60.53;97550.41;126881;1092;62633;-65
2021/07/23 00:33:48;;;;;;;10.55;6.70;;;;;;;16.20;60.26;97550.11;126887;1092;62598;-64
2021/07/23 00:36:15;;;;;;;12.80;6.60;;;;;;;16.17;60.12;97548.27;126825;1092;62713;-66
2021/07/23 00:38:43;;;;;;;8.47;6.20;;;;;;;16.15;59.97;97545.92;126909;1092;62585;-67
2021/07/23 00:41:10;;;;;;;8.50;5.93;;;;;;;16.14;60.19;97543.61;126923;1092;62612;-66
2021/07/23 00:43:37;;;;;;;10.37;6.90;;;;;;;16.13;60.37;97542.84;126907;1092;62636;-66
2021/07/23 00:46:04;;;;;;;10.57;6.23;;;;;;;16.10;60.37;97546.58;126899;1092;62655;-66
2021/07/23 00:48:31;;;;;;;9.70;6.03;;;;;;;16.08;60.22;97542.72;126939;1092;62712;-64
2021/07/23 00:50:58;;;;;;;12.10;6.90;;;;;;;16.06;60.52;97550.81;126871;1092;62767;-64
2021/07/23 00:53:26;;;;;;;9.00;6.37;;;;;;;16.03;60.46;97544.16;126898;1092;62617;-64
2021/07/23 00:55:58;;;;;;;7.83;5.80;;;;;;;15.99;60.83;97543.56;126921;1092;62601;-66
2021/07/23 00:58:26;;;;;;;10.60;6.10;;;;;;;15.99;60.75;97543.56;126904;1092;62658;-65
2021/07/23 01:00:54;;;;;;;10.07;6.47;;;;;;;15.98;60.39;97545.58;126862;1092;62786;-66
2021/07/23 01:03:22;;;;;;;8.83;6.40;;;;;;;15.96;60.55;97539.67;126848;1092;62621;-65
2021/07/23 01:05:50;;;;;;;11.83;6.57;;;;;;;15.96;60.97;97539.67;126926;1092;62565;-65
2021/07/23 01:08:17;;;;;;;10.43;6.50;;;;;;;15.93;60.72;97537.83;126902;1092;62582;-65
2021/07/23 01:10:44;;;;;;;10.23;6.30;;;;;;;15.91;60.90;97534.74;126901;1092;62562;-65
2021/07/23 01:13:12;;;;;;;13.67;6.20;;;;;;;15.90;60.89;97535.99;126902;1092;62693;-65
2021/07/23 01:15:39;;;;;;;13.03;6.77;;;;;;;15.87;60.97;97536.94;126903;1092;62628;-65
2021/07/23 01:18:06;;;;;;;10.67;6.23;;;;;;;15.86;60.92;97532.61;126898;1092;62617;-64
2021/07/23 01:20:33;;;;;;;10.07;6.30;;;;;;;15.84;61.27;97537.13;126935;1092;62871;-65
2021/07/23 01:23:01;;;;;;;9.43;6.13;;;;;;;15.82;61.19;97540.39;126873;1092;62614;-65
2021/07/23 01:25:28;;;;;;;10.47;6.50;;;;;;;15.79;61.72;97541.31;126864;1092;62624;-65
2021/07/23 01:27:56;;;;;;;11.63;6.37;;;;;;;15.75;61.52;97535.13;126876;1092;62765;-65
2021/07/23 01:30:24;;;;;;;11.57;6.50;;;;;;;15.70;61.91;97535.78;126875;1092;62626;-65
2021/07/23 01:32:51;;;;;;;10.57;6.47;;;;;;;15.67;62.03;97542.31;126923;1092;62628;-65
2021/07/23 01:35:22;;;;;;;9.67;6.97;;;;;;;15.61;62.77;97535.81;126852;1092;62669;-65
2021/07/23 01:37:49;;;;;;;10.47;6.60;;;;;;;15.57;62.32;97540.77;126889;1092;62712;-65
2021/07/23 01:40:35;;;;;;;11.00;6.60;;;;;;;15.55;62.49;97532.87;126859;1092;62681;-65
2021/07/23 01:43:02;;;;;;;10.97;6.53;;;;;;;15.53;62.42;97529.00;126913;1092;62617;-65
2021/07/23 01:45:29;;;;;;;9.17;6.37;;;;;;;15.51;62.12;97532.27;126943;1092;62638;-66
2021/07/23 01:47:56;;;;;;;9.10;6.60;;;;;;;15.50;62.27;97527.93;126927;1092;62983;-66
2021/07/23 01:50:23;;;;;;;10.57;6.40;;;;;;;15.50;62.13;97529.95;126929;1092;62569;-65
2021/07/23 01:52:50;;;;;;;9.53;6.13;;;;;;;15.49;61.97;97533.98;126954;1092;62767;-65
2021/07/23 01:55:17;;;;;;;9.80;6.97;;;;;;;15.48;62.21;97529.66;126907;1092;62664;-65
2021/07/23 01:57:45;;;;;;;8.50;6.33;;;;;;;15.48;62.24;97532.44;126963;1092;62621;-65
2021/07/23 02:00:13;;;;;;;8.17;6.03;;;;;;;15.46;62.20;97520.98;126931;1092;62623;-74
2021/07/23 02:02:40;;;;;;;10.57;6.90;;;;;;;15.46;62.43;97523.77;127043;1092;62773;-68
2021/07/23 02:05:07;;;;;;;10.10;5.90;;;;;;;15.47;62.68;97525.31;126917;1092;62832;-67
2021/07/23 02:07:34;;;;;;;9.97;6.30;;;;;;;15.47;62.14;97522.52;126896;1092;62565;-66
2021/07/23 02:10:03;;;;;;;9.03;6.23;;;;;;;15.48;62.42;97524.84;126936;1092;62628;-65
2021/07/23 02:12:30;;;;;;;12.83;6.70;;;;;;;15.50;62.18;97529.95;126927;1092;62617;-65
2021/07/23 02:14:57;;;;;;;12.90;7.07;;;;;;;15.52;62.33;97521.88;126913;1092;62719;-65
2021/07/23 02:17:24;;;;;;;8.57;6.03;;;;;;;15.56;62.66;97523.25;126924;1092;62598;-65
2021/07/23 02:19:51;;;;;;;8.33;6.33;;;;;;;15.60;62.10;97520.31;126892;1092;62569;-64
2021/07/23 02:22:18;;;;;;;10.07;6.30;;;;;;;15.66;62.32;97524.02;126932;1092;62612;-65
2021/07/23 02:24:45;;;;;;;13.43;6.97;;;;;;;15.69;62.54;97525.87;126936;1092;62633;-65
2021/07/23 02:27:12;;;;;;;10.07;6.27;;;;;;;15.73;62.28;97520.88;127018;1092;62622;-66
2021/07/23 02:29:40;;;;;;;11.17;6.43;;;;;;;15.73;62.48;97520.88;126972;1092;62771;-65
2021/07/23 02:32:07;;;;;;;8.93;5.97;;;;;;;15.73;62.15;97509.70;126975;1092;62617;-65
2021/07/23 02:34:35;;;;;;;10.67;6.33;;;;;;;15.74;62.14;97521.65;126938;1092;62841;-68
2021/07/23 02:37:02;;;;;;;8.30;6.13;;;;;;;15.73;62.07;97523.67;126898;1092;62675;-65
2021/07/23 02:39:29;;;;;;;10.07;6.37;;;;;;;15.74;62.36;97525.22;126894;1091;62713;-65
2021/07/23 02:41:56;;;;;;;8.43;6.47;;;;;;;15.70;62.00;97522.59;126931;1092;62626;-65
2021/07/23 02:44:23;;;;;;;10.37;6.43;;;;;;;15.67;61.98;97519.98;126886;1092;62630;-64
2021/07/23 02:46:50;;;;;;;9.47;6.37;;;;;;;15.65;62.29;97519.69;126898;1092;62618;-65
2021/07/23 02:49:17;;;;;;;10.97;6.70;;;;;;;15.64;62.80;97518.14;126866;1092;62608;-65
2021/07/23 02:51:44;;;;;;;9.43;5.73;;;;;;;15.57;62.89;97518.44;126882;1092;62590;-65
2021/07/23 02:54:11;;;;;;;10.03;6.30;;;;;;;15.54;62.56;97519.38;126933;1092;62728;-65
2021/07/23 02:56:39;;;;;;;9.20;6.77;;;;;;;15.49;62.57;97522.83;126897;1092;62617;-65
2021/07/23 02:59:06;;;;;;;9.47;7.03;;;;;;;15.44;62.89;97524.25;126896;1092;62606;-65
2021/07/23 03:01:33;;;;;;;10.85;6.10;;;;;;;15.39;62.94;97520.05;126900;1092;62605;-65
2021/07/23 03:04:00;;;;;;;8.43;6.30;;;;;;;15.37;63.29;97518.98;126907;1092;62620;-65
2021/07/23 03:06:27;;;;;;;9.63;6.13;;;;;;;15.34;63.30;97517.14;126920;1092;62621;-66
2021/07/23 03:08:54;;;;;;;9.67;6.53;;;;;;;15.32;63.63;97514.05;126873;1092;62623;-64
2021/07/23 03:11:21;;;;;;;9.67;5.90;;;;;;;15.32;63.42;97520.40;126902;1092;62633;-64
2021/07/23 03:13:49;;;;;;;9.63;6.37;;;;;;;15.33;63.46;97521.95;126881;1092;62615;-64
2021/07/23 03:16:16;;;;;;;9.00;6.20;;;;;;;15.39;63.50;97520.05;126954;1092;62725;-63
2021/07/23 03:18:43;;;;;;;11.20;6.60;;;;;;;15.49;63.35;97522.83;126896;1092;62764;-65
2021/07/23 03:21:10;;;;;;;10.67;6.77;;;;;;;15.53;63.84;97517.84;126892;1092;62997;-65
2021/07/23 03:23:37;;;;;;;11.07;6.70;;;;;;;15.52;63.92;97525.44;126914;1092;62616;-66
2021/07/23 03:26:08;;;;;;;10.50;6.63;;;;;;;15.52;63.68;97525.44;126909;1090;62566;-65
2021/07/23 03:28:35;;;;;;;9.43;6.30;;;;;;;15.63;63.86;97522.95;126852;1092;62457;-65
2021/07/23 03:31:02;;;;;;;10.53;6.87;;;;;;;15.76;63.45;97517.13;126876;1092;62786;-65
2021/07/23 03:33:29;;;;;;;9.10;6.30;;;;;;;16.00;62.98;97517.95;126859;1092;62641;-65
2021/07/23 03:35:56;;;;;;;13.73;6.50;;;;;;;16.09;62.62;97510.75;126882;1092;62603;-65
2021/07/23 03:38:23;;;;;;;10.67;7.00;;;;;;;16.06;62.68;97525.67;126901;1092;62561;-65
2021/07/23 03:40:51;;;;;;;13.13;6.60;;;;;;;16.05;62.57;97524.89;126914;1092;62750;-65
2021/07/23 03:43:18;;;;;;;8.67;6.57;;;;;;;16.15;62.39;97523.58;126916;1092;62603;-65
2021/07/23 03:45:45;;;;;;;12.33;7.00;;;;;;;16.31;62.06;97522.38;126882;1092;63140;-65
2021/07/23 03:48:12;;;;;;;11.70;6.87;;;;;;;16.70;61.33;97522.45;126924;1092;63043;-65
2021/07/23 03:50:39;;;;;;;9.10;6.33;;;;;;;17.08;61.01;97530.78;126913;1092;62628;-65
2021/07/23 03:53:06;;;;;;;10.50;6.20;;;;;;;17.31;60.95;97525.56;126851;1092;62732;-65
2021/07/23 03:55:33;;;;;;;10.05;6.75;;;;;;;17.56;59.69;97524.17;126933;1092;62828;-66
2021/07/23 03:58:19;;;;;;;13.60;6.40;;;;;;;17.62;59.45;97528.63;126982;1092;62653;-65
2021/07/23 04:00:46;;;;;;;10.97;5.87;;;;;;;17.62;59.16;97531.42;127010;1092;62610;-65
2021/07/23 04:03:13;;;;;;;8.23;5.80;;;;;;;17.65;59.64;97533.25;127026;1092;62603;-65
2021/07/23 04:05:40;;;;;;;11.47;6.30;;;;;;;17.93;59.47;97527.30;127026;1092;62687;-65
2021/07/23 04:08:08;;;;;;;9.93;5.97;;;;;;;18.25;58.51;97533.88;127019;1092;62582;-66
2021/07/23 04:10:35;;;;;;;10.63;5.83;;;;;;;18.69;57.83;97530.89;126993;1092;62642;-65
2021/07/23 04:13:02;;;;;;;11.37;6.03;;;;;;;19.48;56.14;97533.19;126983;1092;62687;-64
2021/07/23 04:15:30;;;;;;;9.35;6.20;;;;;;;20.25;53.60;97530.66;127091;1092;62623;-65
2021/07/23 04:17:57;;;;;;;12.27;6.37;;;;;;;20.69;52.68;97532.94;126968;1092;62725;-63
2021/07/23 04:20:25;;;;;;;8.77;5.90;;;;;;;20.74;52.13;97535.77;127000;1092;63046;-62
2021/07/23 04:22:52;;;;;;;9.67;5.63;;;;;;;20.88;52.42;97527.63;127083;1092;62623;-61
2021/07/23 04:25:19;;;;;;;10.87;5.67;;;;;;;21.11;51.74;97518.71;126941;1092;62690;-63
2021/07/23 04:27:46;;;;;;;11.03;6.10;;;;;;;21.56;51.30;97523.66;126882;1092;63108;-63
2021/07/23 04:30:16;;;;;;;8.70;5.80;;;;;;;22.18;50.18;97527.17;126893;1092;62773;-63
2021/07/23 04:32:46;;;;;;;;;;;;;;;22.82;47.63;97522.35;126884;1092;62575;-68
2021/07/23 04:35:13;;;;;;;;;;;;;;;23.12;47.00;97523.19;126870;1092;62641;-65
2021/07/23 04:37:40;;;;;;;12.10;5.50;;;;;;;23.53;44.52;97525.22;126891;1092;62637;-67
2021/07/23 04:40:08;;;;;;;7.63;5.50;;;;;;;23.76;45.56;97525.82;126884;1095;62617;-63
2021/07/23 04:42:35;;;;;;;6.77;4.83;;;;;;;24.22;44.32;97524.07;126949;1092;62918;-64
2021/07/23 04:45:06;;;;;;;7.30;5.30;;;;;;;24.55;43.58;97518.06;126885;1092;62809;-61
2021/07/23 04:47:33;;;;;;;9.17;5.27;;;;;;;24.78;42.52;97518.56;126890;1092;62627;-64
2021/07/23 04:50:01;;;;;;;11.45;5.55;;;;;;;25.21;40.93;97520.56;126979;1092;62652;-63
2021/07/23 04:52:28;;;;;;;7.50;4.87;;;;;;;25.79;40.47;97514.23;126923;1092;63063;-64
2021/07/23 04:54:56;;;;;;;7.63;5.00;;;;;;;26.38;38.48;97514.97;126830;1092;62677;-66
2021/07/23 04:57:28;;;;;;;9.10;5.23;;;;;;;26.28;39.00;97516.70;127263;1090;62711;-67
2021/07/23 04:59:56;;;;;;;9.15;5.40;;;;;;;26.15;38.52;97506.88;126885;1092;62649;-67
2021/07/23 05:02:23;;;;;;;9.60;5.03;;;;;;;26.30;38.39;97512.02;126885;1095;62620;-67
2021/07/23 05:04:51;;;;;;;11.77;5.13;;;;;;;26.62;37.04;97511.92;126974;1092;62619;-68
2021/07/23 05:07:18;;;;;;;8.80;4.90;;;;;;;26.75;37.04;97509.06;126916;1092;62645;-68
2021/07/23 05:09:45;;;;;;;6.87;4.63;;;;;;;26.97;36.92;97512.73;126890;1093;62662;-68
2021/07/23 05:12:12;;;;;;;7.70;5.00;;;;;;;27.07;37.09;97510.97;126948;1095;62620;-68
2021/07/23 05:14:39;;;;;;;5.80;4.30;;;;;;;27.10;37.33;97509.86;126890;1095;62641;-68
2021/07/23 05:17:06;;;;;;;9.10;4.73;;;;;;;27.15;36.45;97514.67;126910;1092;62640;-67
2021/07/23 05:19:34;;;;;;;8.90;4.90;;;;;;;27.05;36.98;97508.68;126867;1092;62638;-67
2021/07/23 05:22:02;;;;;;;9.57;4.70;;;;;;;26.89;37.23;97506.18;126931;1092;63025;-67
2021/07/23 05:24:30;;;;;;;7.10;4.87;;;;;;;26.78;37.57;97507.20;126932;1092;62608;-67
2021/07/23 05:26:58;;;;;;;7.80;4.80;;;;;;;26.70;37.21;97512.77;126973;1092;62696;-67
2021/07/23 05:29:25;;;;;;;8.00;4.20;;;;;;;26.69;37.18;97516.92;126923;1092;63057;-67
2021/07/23 05:31:52;;;;;;;7.37;5.07;;;;;;;26.67;37.09;97501.75;126874;1092;62690;-67
2021/07/23 05:34:21;;;;;;;10.17;4.80;;;;;;;26.65;36.42;97510.05;126888;1092;62790;-67
2021/07/23 05:36:49;;;;;;;10.93;4.87;;;;;;;26.88;36.50;97516.02;126969;1092;62675;-67
2021/07/23 05:39:16;;;;;;;9.20;5.00;;;;;;;27.64;35.72;97519.73;126948;1092;62623;-67
2021/07/23 05:41:43;;;;;;;9.10;4.80;;;;;;;28.85;33.24;97516.22;126924;1092;62658;-67
2021/07/23 05:44:10;;;;;;;8.50;5.27;;;;;;;30.01;31.97;97518.80;126901;1092;62619;-67
2021/07/23 05:46:37;;;;;;;8.00;4.70;;;;;;;31.08;30.27;97513.63;126933;1092;62935;-67
2021/07/23 05:49:05;;;;;;;7.77;5.13;;;;;;;31.98;29.09;97521.50;126883;1092;62572;-67
2021/07/23 05:51:32;;;;;;;9.75;4.80;;;;;;;32.84;27.46;97509.39;126872;1092;62599;-68
2021/07/23 05:53:59;;;;;;;9.03;4.43;;;;;;;33.58;26.50;97519.73;126903;1092;62623;-67
2021/07/23 05:56:26;;;;;;;7.00;5.17;;;;;;;33.67;25.75;97513.27;126891;1092;62690;-67
2021/07/23 05:58:53;;;;;;;9.33;4.70;;;;;;;33.42;25.92;97518.44;126921;1092;62709;-67
2021/07/23 06:01:21;;;;;;;9.30;4.75;;;;;;;33.32;25.74;97515.47;126851;1092;62665;-68
2021/07/23 06:03:48;;;;;;;7.50;4.70;;;;;;;33.34;25.95;97507.05;126972;1092;62604;-67
2021/07/23 06:06:15;;;;;;;6.60;4.53;;;;;;;33.52;25.56;97516.36;126972;1092;62616;-68
2021/07/23 06:08:42;;;;;;;8.53;4.80;;;;;;;34.05;24.58;97511.92;126932;1092;62641;-67
2021/07/23 06:11:09;;;;;;;6.50;4.30;;;;;;;34.92;24.08;97512.84;126946;1092;62643;-67
2021/07/23 06:13:37;;;;;;;7.90;4.40;;;;;;;35.74;22.64;97502.23;126991;1092;62648;-68
2021/07/23 06:16:05;;;;;;;7.40;4.60;;;;;;;36.46;21.93;97507.96;126907;1092;62632;-67
2021/07/23 06:18:33;;;;;;;8.57;4.60;;;;;;;37.02;21.23;97516.04;126989;1092;62623;-68
2021/07/23 06:21:00;;;;;;;9.13;4.20;;;;;;;37.80;20.18;97511.74;126841;1091;62625;-69
2021/07/23 06:23:28;;;;;;;7.05;4.00;;;;;;;38.39;19.54;97503.80;127021;1092;62905;-68
2021/07/23 06:25:55;;;;;;;7.30;4.17;;;;;;;38.99;19.13;97516.75;126991;1092;62722;-67
2021/07/23 06:28:23;;;;;;;9.00;4.70;;;;;;;39.45;18.47;97500.53;127075;1092;62668;-66
2021/07/23 06:30:50;;;;;;;9.47;4.53;;;;;;;39.95;18.06;97514.19;127008;1092;62617;-67
2021/07/23 06:33:17;;;;;;;7.20;4.33;;;;;;;40.68;17.13;97511.52;127014;1092;62615;-68
2021/07/23 06:35:44;;;;;;;6.87;4.53;;;;;;;41.39;17.46;97509.28;127010;1092;62723;-67
2021/07/23 06:38:11;;;;;;;7.75;4.30;;;;;;;41.48;15.47;97508.28;127010;1092;62628;-67
2021/07/23 06:40:39;;;;;;;6.08;4.20;;;;;;;41.61;15.61;97504.52;126964;1092;62683;-67
2021/07/23 06:43:06;;;;;;;7.10;4.70;;;;;;;42.02;15.17;97506.45;126979;1092;62565;-68
2021/07/23 06:45:33;;;;;;;8.60;4.20;;;;;;;42.48;15.15;97498.30;126965;1092;62709;-67
2021/07/23 06:48:00;;;;;;;8.13;4.78;;;;;;;43.01;14.90;97495.52;126965;1092;62621;-68
2021/07/23 06:50:30;;;;;;;7.68;4.13;;;;;;;43.53;14.61;97501.25;126933;1092;62780;-68
2021/07/23 06:52:58;;;;;;;8.65;4.30;;;;;;;43.84;14.35;97501.05;127016;1092;62626;-67
2021/07/23 06:55:25;;;;;;;8.77;4.07;;;;;;;44.11;14.15;97499.13;126933;1092;62584;-67
2021/07/23 06:57:52;;;;;;;7.97;4.10;;;;;;;44.29;14.36;97491.04;126854;1092;62622;-67
2021/07/23 07:00:20;;;;;;;7.75;4.68;;;;;;;44.30;13.14;97495.45;126884;1092;62623;-67
2021/07/23 07:02:47;;;;;;;7.68;4.10;;;;;;;44.06;13.38;97489.45;126847;1092;62629;-68
2021/07/23 07:05:14;;;;;;;6.50;3.85;;;;;;;44.09;13.48;97485.22;126886;1092;62999;-67
2021/07/23 07:07:42;;;;;;;9.40;4.20;;;;;;;44.44;13.35;97492.30;126843;1091;62610;-67
2021/07/23 07:10:10;;;;;;;10.23;4.17;;;;;;;45.10;12.78;97488.05;126888;1092;62210;-68
2021/07/23 07:12:37;;;;;;;6.57;4.47;;;;;;;45.67;12.62;97484.03;126934;1092;62621;-69
2021/07/23 07:15:04;;;;;;;9.03;4.53;;;;;;;46.20;12.46;97482.67;126937;1092;62707;-68
2021/07/23 07:17:32;;;;;;;9.97;4.50;;;;;;;46.44;12.67;97478.94;126952;1092;62615;-69
2021/07/23 07:19:59;;;;;;;7.13;4.20;;;;;;;46.63;11.96;97477.98;126968;1092;62620;-68
2021/07/23 07:22:26;;;;;;;6.75;4.13;;;;;;;46.36;11.82;97485.30;126876;1092;62632;-69
2021/07/23 07:24:54;;;;;;;10.67;4.50;;;;;;;46.58;11.94;97479.32;126999;1092;62625;-69
2021/07/23 07:27:21;;;;;;;9.40;4.60;;;;;;;47.05;11.67;97475.43;126872;1092;62696;-69
2021/07/23 07:29:48;;;;;;;8.90;4.75;;;;;;;47.31;11.77;97472.40;126958;1092;62674;-69
2021/07/23 07:32:16;;;;;;;9.45;4.40;;;;;;;47.22;11.40;97470.70;126972;1091;62616;-69
2021/07/23 07:34:43;;;;;;;8.80;4.83;;;;;;;47.13;11.61;97469.01;126824;1092;62615;-70
2021/07/23 07:37:10;;;;;;;8.50;4.35;;;;;;;47.19;11.42;97469.17;126910;1092;62568;-69
2021/07/23 07:39:37;;;;;;;10.30;4.60;;;;;;;47.41;11.95;97460.92;126942;1092;62788;-70
2021/07/23 07:42:04;;;;;;;8.93;4.47;;;;;;;47.64;11.86;97467.30;126985;1092;62610;-69
2021/07/23 07:44:31;;;;;;;9.17;4.63;;;;;;;48.00;11.41;97459.30;127204;1092;62621;-71
2021/07/23 07:46:59;;;;;;;7.48;4.40;;;;;;;48.22;11.24;97464.11;127102;1092;62665;-68
2021/07/23 07:49:26;;;;;;;7.30;4.20;;;;;;;48.67;11.21;97465.75;126935;1092;62729;-68
2021/07/23 07:51:53;;;;;;;8.63;4.20;;;;;;;49.24;10.81;97464.50;126862;1092;62624;-68
2021/07/23 07:54:20;;;;;;;8.83;4.50;;;;;;;49.69;10.01;97467.38;126932;1090;62622;-68
2021/07/23 07:56:47;;;;;;;10.80;4.60;;;;;;;49.57;9.58;97462.06;126857;1092;62616;-66
2021/07/23 07:59:16;;;;;;;6.20;3.70;;;;;;;49.45;10.52;97456.00;126788;1092;62688;-67
2021/07/23 08:01:43;;;;;;;;;;;;;;;49.26;11.02;97460.84;126885;1092;62553;-67
2021/07/23 08:04:11;;;;;;;9.87;4.30;;;;;;;49.13;11.16;97456.97;126886;1092;62619;-69
2021/07/23 08:06:41;;;;;;;8.47;4.40;;;;;;;49.10;10.55;97455.45;126853;1092;62680;-68
2021/07/23 08:09:10;;;;;;;10.43;4.43;;;;;;;49.52;10.29;97454.62;126891;1092;62594;-69
2021/07/23 08:11:38;;;;;;;11.00;4.30;;;;;;;49.83;9.84;97453.59;127005;1091;62572;-67
2021/07/23 08:14:05;;;;;;;9.47;3.97;;;;;;;50.43;10.06;97452.84;126878;1092;63002;-67
2021/07/23 08:16:32;;;;;;;8.15;4.50;;;;;;;50.81;8.97;97454.69;126849;1092;62630;-67
2021/07/23 08:19:00;;;;;;;10.47;4.43;;;;;;;50.52;8.95;97458.83;126848;1092;63102;-66
2021/07/23 08:21:30;;;;;;;12.18;4.20;;;;;;;50.06;9.92;97460.52;127489;1090;62590;-67
2021/07/23 08:24:01;;;;;;;8.03;4.23;;;;;;;50.09;9.61;97455.39;129252;1092;61314;-66
2021/07/23 08:26:28;;;;;;;8.75;4.35;;;;;;;50.48;9.83;97456.59;129324;1091;61123;-67
2021/07/23 08:28:55;;;;;;;9.40;4.60;;;;;;;51.01;9.50;97451.92;128566;1092;62680;-67
2021/07/23 08:31:23;;;;;;;9.88;4.45;;;;;;;51.05;9.06;97454.19;126871;1092;62626;-67
2021/07/23 08:33:50;;;;;;;13.60;4.40;;;;;;;50.89;9.46;97459.92;126821;1092;62683;-66
2021/07/23 08:36:17;;;;;;;11.15;4.30;;;;;;;51.15;9.59;97456.45;129195;1092;61115;-69
2021/07/23 08:38:44;;;;;;;9.80;4.18;;;;;;;51.12;8.88;97449.06;129322;1092;61138;-67
2021/07/23 08:41:12;;;;;;;8.00;4.40;;;;;;;50.78;9.42;97453.94;129304;1092;61331;-68
2021/07/23 08:43:40;;;;;;;8.90;4.28;;;;;;;50.47;9.49;97461.74;127753;1092;62605;-67
2021/07/23 08:46:08;;;;;;;9.83;4.10;;;;;;;50.31;9.84;97457.86;129270;1092;61332;-68
2021/07/23 08:48:35;;;;;;;10.05;4.50;;;;;;;50.54;9.49;97450.75;129289;1092;61107;-67
2021/07/23 08:51:02;;;;;;;9.25;4.25;;;;;;;50.72;9.11;97447.26;129296;1092;61119;-68
2021/07/23 08:53:29;;;;;;;6.93;3.90;;;;;;;50.72;9.56;97450.20;129290;1092;61556;-68
2021/07/23 08:55:56;;;;;;;7.15;4.20;;;;;;;50.62;9.21;97444.18;129318;1092;61129;-68
2021/07/23 08:58:23;;;;;;;9.47;3.83;;;;;;;50.60;9.63;97447.11;128346;1092;62624;-68
2021/07/23 09:00:56;;;;;;;7.03;4.20;;;;;;;50.75;9.58;97439.91;126883;1092;62671;-68
2021/07/23 09:03:27;;;;;;;12.50;4.40;;;;;;;51.05;9.43;97439.45;126912;1092;62693;-66
2021/07/23 09:05:54;;;;;;;8.43;3.97;;;;;;;50.75;8.73;97445.81;128011;1092;62565;-67
2021/07/23 09:08:22;;;;;;;6.53;3.70;;;;;;;50.04;9.49;97436.20;126843;1092;62659;-66
2021/07/23 09:11:05;;;;;;;8.13;4.25;;;;;;;49.19;9.95;97441.61;129267;1092;62082;-70
2021/07/23 09:13:32;;;;;;;8.50;4.20;;;;;;;48.71;10.08;97436.44;129312;1092;61095;-69
2021/07/23 09:16:00;;;;;;;6.80;3.78;;;;;;;47.63;11.11;97427.69;127021;1092;62671;-67
2021/07/23 09:18:33;;;;;;;8.77;4.13;;;;;;;45.82;12.39;97434.74;126871;1092;63057;-68
2021/07/23 09:21:04;;;;;;;8.55;4.25;;;;;;;43.82;13.90;97433.91;126935;1092;62578;-67
2021/07/23 09:23:33;;;;;;;9.50;4.10;;;;;;;41.89;15.83;97428.79;126887;1092;62622;-68
2021/07/23 09:26:15;;;;;;;7.55;4.25;;;;;;;40.08;17.22;97435.20;126882;1092;62578;-68
2021/07/23 09:28:46;;;;;;;7.40;4.05;;;;;;;38.46;18.50;97432.64;126998;1092;62619;-68
2021/07/23 09:31:27;;;;;;;9.43;4.83;;;;;;;37.37;19.85;97421.66;126864;1092;62703;-67
2021/07/23 09:33:55;;;;;;;9.25;4.60;;;;;;;36.50;20.80;97430.38;126799;1092;62623;-69
2021/07/23 09:36:23;;;;;;;13.80;4.60;;;;;;;35.64;22.00;97427.39;126810;1092;62617;-69
2021/07/23 09:38:50;;;;;;;10.93;4.50;;;;;;;35.11;22.81;97420.74;126844;1092;62628;-69
2021/07/23 09:41:23;;;;;;;8.63;4.43;;;;;;;34.57;23.59;97425.35;126779;1092;62588;-68
2021/07/23 09:44:01;;;;;;;7.70;4.60;;;;;;;33.95;23.79;97434.36;126787;1092;62700;-68
2021/07/23 09:46:33;;;;;;;10.78;4.30;;;;;;;33.40;24.40;97424.34;126801;1092;62599;-68
2021/07/23 09:49:16;;;;;;;7.90;4.55;;;;;;;33.14;25.34;97422.96;126830;1092;62616;-68
2021/07/23 09:51:44;;;;;;;9.50;4.60;;;;;;;32.63;26.79;97421.70;126788;1092;62639;-68
2021/07/23 09:54:11;;;;;;;9.40;4.60;;;;;;;32.28;26.85;97420.97;126900;1092;62787;-68
2021/07/23 09:56:38;;;;;;;9.80;4.75;;;;;;;31.99;26.54;97420.69;126822;1090;62687;-68
2021/07/23 09:59:10;;;;;;;9.45;4.50;;;;;;;31.70;28.25;97422.45;126877;1092;62604;-68
2021/07/23 10:01:40;;;;;;;7.13;4.87;;;;;;;31.55;28.12;97415.50;126923;1092;62639;-69
2021/07/23 10:04:21;;;;;;;6.70;5.10;;;;;;;31.48;28.03;97413.48;126867;1092;62674;-71
2021/07/23 10:06:57;;;;;;;7.10;4.80;;;;;;;31.11;27.43;97420.20;126975;1092;62773;-69
2021/07/23 10:09:26;;;;;;;8.50;4.80;;;;;;;30.82;28.29;97416.93;126842;1092;62717;-69
2021/07/23 10:11:54;;;;;;;7.20;4.23;;;;;;;30.60;29.10;97407.10;126896;1092;62628;-68
2021/07/23 10:14:24;;;;;;;7.00;4.73;;;;;;;30.52;28.99;97417.80;127350;1092;62687;-68
2021/07/23 10:16:51;;;;;;;8.23;4.20;;;;;;;30.34;28.59;97403.41;126928;1092;62655;-67
2021/07/23 10:19:22;;;;;;;7.55;4.10;;;;;;;30.37;28.16;97410.82;126876;1092;62671;-67
2021/07/23 10:21:56;;;;;;;10.43;4.90;;;;;;;30.40;29.26;97400.34;126857;1092;62580;-67
2021/07/23 10:24:25;;;;;;;11.25;5.15;;;;;;;30.33;30.63;97396.15;126886;1092;62600;-66
2021/07/23 10:26:52;;;;;;;8.57;4.83;;;;;;;30.23;28.75;97408.77;126891;1092;62626;-67
2021/07/23 10:29:44;;;;;;;8.03;5.00;;;;;;;29.96;28.93;97409.17;126819;1092;62626;-68
2021/07/23 10:32:24;;;;;;;10.00;5.55;;;;;;;29.55;29.33;97398.19;126851;1092;62603;-68
2021/07/23 10:34:51;;;;;;;;;;;;;;;29.31;30.24;97400.26;126865;1092;63089;-67
2021/07/23 10:37:30;;;;;;;10.70;5.08;;;;;;;29.29;30.29;97390.75;126915;1092;62636;-67
2021/07/23 10:40:11;;;;;;;14.33;5.23;;;;;;;29.34;30.65;97386.95;126847;1092;62569;-67
2021/07/23 10:42:39;;;;;;;9.05;5.10;;;;;;;29.13;31.05;97387.89;126920;1092;62569;-69
2021/07/23 10:45:08;;;;;;;12.87;5.33;;;;;;;29.13;30.66;97385.03;126969;1092;62604;-67
2021/07/23 10:48:06;;;;;;;8.17;4.77;;;;;;;29.01;29.66;97389.57;127111;1092;62589;-70
2021/07/23 10:50:38;;;;;;;7.90;4.78;;;;;;;28.85;29.56;97379.44;126761;1092;62634;-69
2021/07/23 10:53:27;;;;;;;7.27;4.83;;;;;;;28.85;29.53;97387.98;126916;1092;62674;-70
2021/07/23 10:55:54;;;;;;;9.53;4.80;;;;;;;28.84;29.84;97377.92;126850;1092;62632;-69
2021/07/23 10:58:22;;;;;;;7.90;5.00;;;;;;;28.93;30.13;97388.05;126844;1092;62657;-69
2021/07/23 11:00:58;;;;;;;9.25;4.80;;;;;;;28.97;29.23;97383.48;126804;1092;62635;-68
2021/07/23 11:03:39;;;;;;;7.63;4.57;;;;;;;28.99;29.32;97372.28;126871;1092;62620;-70
2021/07/23 11:06:19;;;;;;;7.80;4.60;;;;;;;29.14;30.00;97378.00;126977;1092;62645;-67
2021/07/23 11:08:50;;;;;;;6.70;4.00;;;;;;;29.19;28.69;97374.20;126900;1092;62619;-68
2021/07/23 11:11:19;;;;;;;7.80;4.20;;;;;;;29.15;28.45;97367.36;126950;1092;62786;-67
2021/07/23 11:13:46;;;;;;;6.97;4.50;;;;;;;29.30;29.12;97373.08;126997;1092;62642;-69
2021/07/23 11:16:22;;;;;;;7.70;4.40;;;;;;;29.37;29.26;97375.16;126897;1092;62662;-70
2021/07/23 11:18:52;;;;;;;7.67;4.73;;;;;;;29.33;28.77;97382.58;127036;1092;62572;-68
2021/07/23 11:21:20;;;;;;;9.20;4.90;;;;;;;29.28;28.58;97372.89;126873;1092;62673;-69
2021/07/23 11:23:48;;;;;;;7.60;4.90;;;;;;;29.36;28.37;97376.48;126871;1092;62795;-69
2021/07/23 11:26:25;;;;;;;8.00;4.60;;;;;;;29.43;27.96;97370.01;127037;1090;62686;-69
2021/07/23 11:28:53;;;;;;;7.30;4.47;;;;;;;29.36;28.18;97364.32;126952;1092;62617;-67
2021/07/23 11:31:35;;;;;;;6.75;4.40;;;;;;;29.39;27.80;97369.64;127007;1092;62617;-68